createdAt,value
2022-09-18T00:00:55.893Z,8.03
2022-09-18T00:03:17.416Z,10.53
2022-09-18T00:05:39.008Z,5.67
2022-09-18T00:08:00.424Z,7.20
2022-09-18T00:10:21.879Z,9.67
2022-09-18T00:12:43.305Z,11.73
2022-09-18T00:15:05.262Z,9.50
2022-09-18T00:17:26.674Z,7.03
2022-09-18T00:19:49.154Z,9.77
2022-09-18T00:22:10.567Z,6.23
2022-09-18T00:24:31.985Z,8.87
2022-09-18T00:26:53.447Z,6.57
2022-09-18T00:29:15.787Z,6.00
2022-09-18T00:31:37.818Z,5.37
2022-09-18T00:34:02.585Z,6.77
2022-09-18T00:36:24.164Z,8.40
2022-09-18T00:38:46.474Z,8.37
2022-09-18T00:41:13.081Z,6.10
2022-09-18T00:43:36.140Z,7.03
2022-09-18T00:45:59.161Z,8.03
2022-09-18T00:48:22.304Z,12.50
2022-09-18T00:50:43.799Z,6.27
2022-09-18T00:53:06.223Z,11.57
2022-09-18T00:55:34.708Z,7.33
2022-09-18T00:57:58.872Z,7.53
2022-09-18T01:00:21.294Z,8.70
2022-09-18T01:02:44.836Z,10.47
2022-09-18T01:05:07.814Z,7.30
2022-09-18T01:07:47.344Z,11.13
2022-09-18T01:10:47.102Z,9.47
2022-09-18T01:13:18.430Z,9.67
2022-09-18T01:15:45.539Z,6.40
2022-09-18T01:18:31.246Z,8.70
2022-09-18T01:21:14.904Z,6.47
2022-09-18T01:24:06.789Z,7.07
2022-09-18T01:26:31.059Z,9.27
2022-09-18T01:29:01.589Z,5.20
2022-09-18T01:31:40.176Z,9.90
2022-09-18T01:34:34.904Z,9.60
2022-09-18T01:37:06.465Z,4.93
2022-09-18T01:39:37.632Z,10.40
2022-09-18T01:42:00.915Z,9.83
2022-09-18T01:44:28.302Z,10.90
2022-09-18T01:46:51.051Z,9.27
2022-09-18T01:49:16.454Z,8.10
2022-09-18T01:51:57.230Z,8.33
2022-09-18T01:54:24.304Z,9.60
2022-09-18T01:57:02.559Z,9.07
2022-09-18T01:59:42.826Z,5.67
2022-09-18T02:02:09.713Z,9.57
2022-09-18T02:04:35.012Z,7.87
2022-09-18T02:07:20.643Z,9.80
2022-09-18T02:09:43.601Z,8.47
2022-09-18T02:12:08.641Z,9.97
2022-09-18T02:14:34.567Z,11.63
2022-09-18T02:17:03.549Z,7.17
2022-09-18T02:19:35.278Z,7.50
2022-09-18T02:21:59.383Z,9.77
2022-09-18T02:24:24.618Z,6.03
2022-09-18T02:26:47.952Z,9.00
2022-09-18T02:29:12.380Z,5.73
2022-09-18T02:31:34.519Z,11.77
2022-09-18T02:33:56.022Z,5.63
2022-09-18T02:36:42.211Z,10.83
2022-09-18T02:39:16.094Z,10.40
2022-09-18T02:42:18.966Z,9.70
2022-09-18T02:44:59.775Z,9.67
2022-09-18T02:47:54.853Z,11.53
2022-09-18T02:50:29.990Z,8.83
2022-09-18T02:53:08.974Z,7.47
2022-09-18T02:55:41.404Z,6.90
2022-09-18T02:58:09.863Z,9.97
2022-09-18T03:00:32.454Z,10.43
2022-09-18T03:02:58.812Z,5.97
2022-09-18T03:05:20.362Z,8.50
2022-09-18T03:07:41.785Z,7.93
2022-09-18T03:10:03.399Z,4.70
2022-09-18T03:12:24.881Z,8.80
2022-09-18T03:14:46.278Z,8.30
2022-09-18T03:17:07.884Z,6.10
2022-09-18T03:19:29.288Z,8.10
2022-09-18T03:21:52.176Z,10.73
2022-09-18T03:24:13.595Z,8.90
2022-09-18T03:26:35.067Z,8.40
2022-09-18T03:28:56.542Z,12.80
2022-09-18T03:31:18.045Z,8.23
2022-09-18T03:33:39.624Z,6.73
2022-09-18T03:36:01.327Z,10.30
2022-09-18T03:38:22.765Z,7.00
2022-09-18T03:40:47.846Z,5.70
2022-09-18T03:43:09.709Z,6.40
2022-09-18T03:45:31.184Z,7.80
2022-09-18T03:47:53.055Z,6.10
2022-09-18T03:50:15.095Z,4.90
2022-09-18T03:52:36.653Z,8.20
2022-09-18T03:54:58.113Z,9.47
2022-09-18T03:57:19.554Z,6.50
2022-09-18T03:59:40.968Z,6.53
2022-09-18T04:02:02.530Z,9.87
2022-09-18T04:04:24.397Z,10.07
2022-09-18T04:06:45.845Z,8.67
2022-09-18T04:09:07.671Z,11.20
2022-09-18T04:11:29.122Z,6.73
2022-09-18T04:13:50.544Z,9.50
2022-09-18T04:16:12.046Z,7.67
2022-09-18T04:18:33.843Z,5.10
2022-09-18T04:20:55.328Z,12.20
2022-09-18T04:23:17.572Z,9.73
2022-09-18T04:25:40.467Z,6.03
2022-09-18T04:28:02.243Z,7.63
2022-09-18T04:30:23.817Z,8.90
2022-09-18T04:32:45.737Z,8.10
2022-09-18T04:35:07.699Z,6.77
2022-09-18T04:37:29.104Z,8.70
2022-09-18T04:39:50.566Z,6.37
2022-09-18T04:42:11.979Z,7.63
2022-09-18T04:44:33.414Z,10.37
2022-09-18T04:46:54.978Z,7.27
2022-09-18T04:49:16.724Z,6.27
2022-09-18T04:51:38.410Z,6.67
2022-09-18T04:53:59.966Z,9.10
2022-09-18T04:56:21.455Z,9.50
2022-09-18T04:58:42.867Z,8.47
2022-09-18T05:01:04.440Z,7.47
2022-09-18T05:03:25.881Z,6.57
2022-09-18T05:05:48.340Z,7.07
2022-09-18T05:08:09.752Z,5.33
2022-09-18T05:10:31.433Z,7.40
2022-09-18T05:12:52.904Z,8.97
2022-09-18T05:15:14.655Z,8.00
2022-09-18T05:17:36.044Z,7.83
2022-09-18T05:19:57.475Z,4.87
2022-09-18T05:22:18.950Z,8.73
2022-09-18T05:24:40.390Z,7.33
2022-09-18T05:27:01.820Z,5.43
2022-09-18T05:29:23.239Z,6.07
2022-09-18T05:31:44.757Z,5.83
2022-09-18T05:34:06.320Z,6.07
2022-09-18T05:36:27.782Z,10.37
2022-09-18T05:38:49.238Z,8.60
2022-09-18T05:41:10.700Z,5.57
2022-09-18T05:43:32.223Z,8.10
2022-09-18T05:45:53.807Z,4.73
2022-09-18T05:48:15.375Z,5.83
2022-09-18T05:50:37.272Z,7.70
2022-09-18T05:53:12.072Z,9.37
2022-09-18T05:55:34.022Z,5.47
2022-09-18T05:57:57.300Z,7.77
2022-09-18T06:00:18.816Z,3.77
2022-09-18T06:02:40.296Z,5.57
2022-09-18T06:05:01.722Z,7.87
2022-09-18T06:07:23.226Z,4.57
2022-09-18T06:09:44.693Z,10.50
2022-09-18T06:12:06.436Z,6.70
2022-09-18T06:14:27.906Z,6.13
2022-09-18T06:16:49.688Z,4.43
2022-09-18T06:19:11.180Z,9.93
2022-09-18T06:21:32.595Z,6.87
2022-09-18T06:23:53.985Z,6.00
2022-09-18T06:26:15.962Z,6.00
2022-09-18T06:28:37.406Z,4.50
2022-09-18T06:30:59.617Z,6.73
2022-09-18T06:33:21.080Z,8.27
2022-09-18T06:35:42.671Z,9.20
2022-09-18T06:38:05.893Z,4.27
2022-09-18T06:40:27.460Z,4.93
2022-09-18T06:42:48.993Z,7.60
2022-09-18T06:45:11.128Z,5.87
2022-09-18T06:47:32.611Z,7.23
2022-09-18T06:49:54.038Z,5.13
2022-09-18T06:52:15.513Z,5.43
2022-09-18T06:54:37.003Z,9.13
2022-09-18T06:56:58.421Z,6.70
2022-09-18T06:59:19.841Z,5.77
2022-09-18T07:01:41.309Z,4.60
2022-09-18T07:04:03.162Z,4.50
2022-09-18T07:06:24.944Z,6.00
2022-09-18T07:08:46.439Z,5.23
2022-09-18T07:11:07.918Z,6.17
2022-09-18T07:13:33.702Z,6.40
2022-09-18T07:15:55.166Z,3.47
2022-09-18T07:18:16.640Z,6.93
2022-09-18T07:20:38.066Z,6.60
2022-09-18T07:23:01.393Z,5.17
2022-09-18T07:25:23.795Z,4.00
2022-09-18T07:27:45.205Z,5.23
2022-09-18T07:30:07.095Z,6.07
2022-09-18T07:32:28.535Z,4.33
2022-09-18T07:34:50.419Z,5.97
2022-09-18T07:37:11.820Z,4.43
2022-09-18T07:39:33.255Z,3.63
2022-09-18T07:41:55.300Z,7.03
2022-09-18T07:44:16.725Z,4.23
2022-09-18T07:46:38.361Z,3.37
2022-09-18T07:48:59.938Z,6.70
2022-09-18T07:51:25.991Z,3.20
2022-09-18T07:53:48.952Z,4.30
2022-09-18T07:56:12.018Z,4.80
2022-09-18T07:58:33.520Z,2.33
2022-09-18T08:00:54.995Z,3.27
2022-09-18T08:03:18.470Z,2.43
2022-09-18T08:05:41.521Z,3.93
2022-09-18T08:08:04.294Z,3.30
2022-09-18T08:10:25.791Z,2.57
2022-09-18T08:12:47.231Z,2.63
2022-09-18T08:15:09.263Z,1.97
2022-09-18T08:17:30.676Z,1.37
2022-09-18T08:19:52.382Z,2.73
2022-09-18T08:22:13.804Z,2.47
2022-09-18T08:24:35.224Z,1.47
2022-09-18T08:27:03.206Z,1.40
2022-09-18T08:29:24.635Z,2.83
2022-09-18T08:31:46.945Z,2.40
2022-09-18T08:34:09.428Z,1.73
2022-09-18T08:36:30.824Z,2.70
2022-09-18T08:38:53.898Z,1.13
2022-09-18T08:41:39.611Z,2.80
2022-09-18T08:44:04.210Z,1.90
2022-09-18T08:46:43.137Z,2.53
2022-09-18T08:49:27.052Z,2.20
2022-09-18T08:52:16.557Z,1.77
2022-09-18T08:54:58.938Z,1.50
2022-09-18T08:57:44.049Z,3.40
2022-09-18T09:00:27.611Z,2.77
2022-09-18T09:03:18.347Z,1.00
2022-09-18T09:05:47.956Z,1.20
2022-09-18T09:08:31.247Z,1.37
2022-09-18T09:11:01.174Z,1.70
2022-09-18T09:13:52.962Z,1.10
2022-09-18T09:16:18.609Z,3.07
2022-09-18T09:18:59.335Z,1.50
2022-09-18T09:21:22.887Z,1.40
2022-09-18T09:24:42.124Z,1.63
2022-09-18T09:27:19.725Z,2.77
2022-09-18T09:29:43.961Z,2.10
2022-09-18T09:32:25.782Z,1.63
2022-09-18T09:34:56.945Z,1.43
2022-09-18T09:37:24.005Z,1.00
2022-09-18T09:39:54.353Z,1.92
2022-09-18T09:42:28.974Z,1.73
2022-09-18T09:45:08.712Z,2.23
2022-09-18T09:47:40.275Z,2.30
2022-09-18T09:50:13.020Z,1.80
2022-09-18T09:52:37.775Z,1.93
2022-09-18T09:55:14.638Z,2.70
2022-09-18T09:57:48.052Z,1.77
2022-09-18T10:00:19.771Z,2.03
2022-09-18T10:02:57.209Z,1.90
2022-09-18T10:05:24.618Z,2.37
2022-09-18T10:07:51.552Z,4.23
2022-09-18T10:10:27.576Z,4.73
2022-09-18T10:12:56.929Z,2.57
2022-09-18T10:15:39.771Z,3.83
2022-09-18T10:18:04.232Z,4.73
2022-09-18T10:20:28.566Z,6.30
2022-09-18T10:22:50.239Z,4.17
2022-09-18T10:25:26.606Z,1.83
2022-09-18T10:27:48.029Z,1.67
2022-09-18T10:30:13.622Z,1.80
2022-09-18T10:32:38.143Z,3.07
2022-09-18T10:34:59.581Z,3.03
2022-09-18T10:37:30.028Z,3.33
2022-09-18T10:39:54.214Z,1.33
2022-09-18T10:42:19.244Z,6.47
2022-09-18T10:44:43.238Z,2.73
2022-09-18T10:47:18.329Z,1.97
2022-09-18T10:49:53.181Z,2.17
2022-09-18T10:52:22.043Z,4.37
2022-09-18T10:55:09.272Z,1.90
2022-09-18T10:57:33.272Z,1.87
2022-09-18T10:59:54.728Z,1.80
2022-09-18T11:02:19.700Z,4.60
2022-09-18T11:04:45.851Z,1.33
2022-09-18T11:07:11.076Z,3.77
2022-09-18T11:09:38.877Z,2.37
2022-09-18T11:12:00.518Z,3.27
2022-09-18T11:14:40.434Z,1.50
2022-09-18T11:17:02.375Z,3.30
2022-09-18T11:19:31.263Z,2.10
2022-09-18T11:21:56.121Z,3.10
2022-09-18T11:24:31.315Z,3.43
2022-09-18T11:27:00.507Z,2.60
2022-09-18T11:29:33.361Z,1.73
2022-09-18T11:32:04.275Z,2.37
2022-09-18T11:34:30.038Z,1.63
2022-09-18T11:36:56.531Z,2.67
2022-09-18T11:39:27.320Z,1.67
2022-09-18T11:41:50.621Z,2.20
2022-09-18T11:44:17.448Z,1.17
2022-09-18T11:47:09.576Z,1.97
2022-09-18T11:49:47.894Z,2.57
2022-09-18T11:52:21.908Z,2.03
2022-09-18T11:54:55.533Z,1.73
2022-09-18T11:57:22.222Z,1.40
2022-09-18T11:59:57.003Z,1.53
2022-09-18T12:02:39.014Z,1.43
2022-09-18T12:05:17.505Z,1.33
2022-09-18T12:07:57.755Z,1.73
2022-09-18T12:10:42.895Z,1.17
2022-09-18T12:13:28.320Z,1.57
2022-09-18T12:15:59.923Z,2.00
2022-09-18T12:18:27.497Z,2.40
2022-09-18T12:20:57.148Z,1.73
2022-09-18T12:23:23.732Z,1.17
2022-09-18T12:26:15.171Z,1.00
2022-09-18T12:29:01.435Z,1.90
2022-09-18T12:31:55.472Z,3.03
2022-09-18T12:34:43.571Z,1.47
2022-09-18T12:37:08.821Z,1.00
2022-09-18T12:39:36.673Z,1.93
2022-09-18T12:42:14.673Z,1.83
2022-09-18T12:44:54.667Z,1.17
2022-09-18T12:47:27.871Z,2.97
2022-09-18T12:50:16.824Z,1.10
2022-09-18T12:53:09.094Z,0.90
2022-09-18T12:56:01.384Z,1.13
2022-09-18T12:58:31.862Z,2.67
2022-09-18T13:00:54.036Z,1.87
2022-09-18T13:03:30.198Z,1.50
2022-09-18T13:06:12.234Z,2.57
2022-09-18T13:08:41.429Z,3.27
2022-09-18T13:11:10.756Z,0.83
2022-09-18T13:13:43.687Z,2.93
2022-09-18T13:16:17.709Z,1.90
2022-09-18T13:19:01.808Z,1.53
2022-09-18T13:21:33.153Z,4.63
2022-09-18T13:23:55.575Z,1.73
2022-09-18T13:26:18.497Z,3.63
2022-09-18T13:28:43.729Z,2.03
2022-09-18T13:31:27.729Z,2.57
2022-09-18T13:33:54.753Z,0.93
2022-09-18T13:36:23.792Z,0.93
2022-09-18T13:38:48.678Z,2.87
2022-09-18T13:41:12.110Z,3.57
2022-09-18T13:43:40.541Z,1.37
2022-09-18T13:46:06.806Z,3.77
2022-09-18T13:48:30.253Z,2.17
2022-09-18T13:51:29.528Z,1.67
2022-09-18T13:54:17.562Z,1.57
2022-09-18T13:57:04.990Z,1.03
2022-09-18T13:59:45.054Z,1.77
2022-09-18T14:02:23.597Z,1.07
2022-09-18T14:04:49.746Z,2.30
2022-09-18T14:07:31.158Z,0.90
2022-09-18T14:09:55.980Z,2.53
2022-09-18T14:12:18.548Z,1.17
2022-09-18T14:14:40.826Z,3.90
2022-09-18T14:17:13.628Z,2.00
2022-09-18T14:19:36.956Z,1.87
2022-09-18T14:22:00.340Z,1.17
2022-09-18T14:24:37.797Z,1.73
2022-09-18T14:27:19.316Z,2.13
2022-09-18T14:29:41.014Z,2.40
2022-09-18T14:32:02.829Z,1.53
2022-09-18T14:34:33.454Z,1.20
2022-09-18T14:37:01.498Z,1.63
2022-09-18T14:39:31.928Z,0.80
2022-09-18T14:41:55.918Z,1.37
2022-09-18T14:44:17.615Z,2.30
2022-09-18T14:46:53.061Z,2.57
2022-09-18T14:49:42.139Z,1.40
2022-09-18T14:52:19.764Z,1.60
2022-09-18T14:54:47.576Z,0.93
2022-09-18T14:57:14.082Z,2.40
2022-09-18T14:59:36.065Z,1.80
2022-09-18T15:02:13.142Z,1.47
2022-09-18T15:04:35.489Z,1.17
2022-09-18T15:06:57.912Z,1.43
2022-09-18T15:09:34.640Z,1.83
2022-09-18T15:12:02.655Z,2.47
2022-09-18T15:14:34.055Z,0.90
2022-09-18T15:17:02.640Z,3.17
2022-09-18T15:19:24.765Z,2.00
2022-09-18T15:21:47.678Z,1.60
2022-09-18T15:24:15.295Z,2.10
2022-09-18T15:26:43.591Z,1.50
2022-09-18T15:29:13.235Z,2.20
2022-09-18T15:31:35.251Z,2.30
2022-09-18T15:34:18.831Z,2.00
2022-09-18T15:36:41.207Z,2.97
2022-09-18T15:39:05.604Z,3.03
2022-09-18T15:41:37.588Z,3.20
2022-09-18T15:43:59.591Z,3.07
2022-09-18T15:46:31.261Z,2.30
2022-09-18T15:48:56.231Z,5.00
2022-09-18T15:51:26.120Z,3.00
2022-09-18T15:54:13.044Z,3.63
2022-09-18T15:56:36.890Z,4.63
2022-09-18T15:59:00.787Z,1.57
2022-09-18T16:01:29.436Z,1.23
2022-09-18T16:04:06.632Z,0.70
2022-09-18T16:06:32.585Z,1.57
2022-09-18T16:08:56.654Z,5.60
2022-09-18T16:11:44.766Z,2.30
2022-09-18T16:14:37.066Z,2.93
2022-09-18T16:17:33.776Z,0.50
2022-09-18T16:20:00.353Z,1.37
2022-09-18T16:22:21.813Z,0.90
2022-09-18T16:24:43.253Z,0.43
2022-09-18T16:27:06.652Z,0.70
2022-09-18T16:29:28.074Z,0.57
2022-09-18T16:31:49.558Z,0.87
2022-09-18T16:34:28.045Z,1.07
2022-09-18T16:36:50.801Z,1.33
2022-09-18T16:39:20.132Z,0.60
2022-09-18T16:41:42.082Z,2.00
2022-09-18T16:44:05.223Z,0.90
2022-09-18T16:46:37.536Z,1.00
2022-09-18T16:49:00.337Z,0.70
2022-09-18T16:51:22.032Z,1.60
2022-09-18T16:53:44.038Z,0.70
2022-09-18T16:56:11.286Z,2.03
2022-09-18T16:58:32.720Z,0.90
2022-09-18T17:00:54.267Z,2.37
2022-09-18T17:03:18.060Z,0.53
2022-09-18T17:05:39.648Z,1.20
2022-09-18T17:08:03.955Z,0.90
2022-09-18T17:10:25.530Z,1.97
2022-09-18T17:12:46.980Z,1.87
2022-09-18T17:15:09.391Z,1.23
2022-09-18T17:17:31.309Z,1.13
2022-09-18T17:19:53.019Z,3.33
2022-09-18T17:22:14.443Z,2.30
2022-09-18T17:24:36.078Z,3.33
2022-09-18T17:26:57.498Z,1.53
2022-09-18T17:29:18.940Z,2.93
2022-09-18T17:31:40.474Z,1.80
2022-09-18T17:34:02.348Z,0.83
2022-09-18T17:36:23.922Z,1.20
2022-09-18T17:38:46.448Z,1.73
2022-09-18T17:41:11.557Z,2.43
2022-09-18T17:43:32.998Z,2.60
2022-09-18T17:45:59.503Z,1.73
2022-09-18T17:48:20.994Z,2.07
2022-09-18T17:50:42.429Z,1.53
2022-09-18T17:53:03.835Z,1.53
2022-09-18T17:55:25.333Z,2.63
2022-09-18T17:57:46.777Z,3.10
2022-09-18T18:00:09.838Z,2.73
2022-09-18T18:02:31.863Z,1.10
2022-09-18T18:04:53.368Z,2.47
2022-09-18T18:07:14.823Z,2.53
2022-09-18T18:09:37.525Z,1.00
2022-09-18T18:11:59.560Z,2.17
2022-09-18T18:14:25.099Z,0.70
2022-09-18T18:16:49.747Z,1.47
2022-09-18T18:19:13.489Z,1.63
2022-09-18T18:21:35.670Z,1.17
2022-09-18T18:23:59.470Z,2.07
2022-09-18T18:26:20.870Z,2.80
2022-09-18T18:28:42.719Z,1.43
2022-09-18T18:31:12.178Z,1.50
2022-09-18T18:33:35.397Z,1.53
2022-09-18T18:36:10.712Z,2.87
2022-09-18T18:38:32.105Z,4.10
2022-09-18T18:40:53.687Z,3.63
2022-09-18T18:43:15.379Z,1.53
2022-09-18T18:45:37.498Z,2.70
2022-09-18T18:47:58.969Z,3.13
2022-09-18T18:50:21.857Z,5.10
2022-09-18T18:52:43.960Z,1.43
2022-09-18T18:55:05.845Z,1.57
2022-09-18T18:57:27.236Z,2.40
2022-09-18T18:59:48.656Z,3.03
2022-09-18T19:02:13.070Z,4.10
2022-09-18T19:04:34.689Z,0.80
2022-09-18T19:06:56.655Z,1.83
2022-09-18T19:09:24.371Z,1.53
2022-09-18T19:11:48.191Z,2.20
2022-09-18T19:14:16.980Z,2.13
2022-09-18T19:16:39.203Z,4.13
2022-09-18T19:19:00.663Z,1.20
2022-09-18T19:21:22.750Z,0.87
2022-09-18T19:23:48.491Z,1.87
2022-09-18T19:26:11.379Z,2.60
2022-09-18T19:28:32.824Z,1.13
2022-09-18T19:30:55.390Z,3.40
2022-09-18T19:33:17.162Z,2.30
2022-09-18T19:35:38.563Z,1.87
2022-09-18T19:38:00.511Z,1.57
2022-09-18T19:40:21.960Z,1.77
2022-09-18T19:42:55.548Z,1.60
2022-09-18T19:45:22.426Z,1.47
2022-09-18T19:47:50.459Z,3.50
2022-09-18T19:50:23.624Z,2.00
2022-09-18T19:52:48.503Z,1.80
2022-09-18T19:55:16.177Z,1.53
2022-09-18T19:57:37.574Z,1.90
2022-09-18T20:00:01.074Z,1.97
2022-09-18T20:02:24.127Z,1.77
2022-09-18T20:04:45.699Z,1.53
2022-09-18T20:07:07.732Z,2.33
2022-09-18T20:09:30.622Z,1.37
2022-09-18T20:11:52.030Z,1.03
2022-09-18T20:14:13.458Z,0.63
2022-09-18T20:16:34.991Z,0.90
2022-09-18T20:18:56.519Z,0.87
2022-09-18T20:21:19.116Z,1.30
2022-09-18T20:23:41.117Z,4.73
2022-09-18T20:26:07.502Z,2.27
2022-09-18T20:28:28.984Z,1.87
2022-09-18T20:30:50.387Z,1.27
2022-09-18T20:33:12.515Z,1.27
2022-09-18T20:35:35.892Z,1.83
2022-09-18T20:37:59.674Z,1.00
2022-09-18T20:40:21.146Z,1.47
2022-09-18T20:42:42.612Z,2.37
2022-09-18T20:45:04.460Z,1.53
2022-09-18T20:47:26.213Z,1.27
2022-09-18T20:49:49.803Z,2.33
2022-09-18T20:52:14.649Z,1.13
2022-09-18T20:54:36.197Z,2.50
2022-09-18T20:56:57.780Z,2.50
2022-09-18T20:59:19.702Z,1.30
2022-09-18T21:01:42.068Z,0.47
2022-09-18T21:04:04.536Z,2.50
2022-09-18T21:06:31.601Z,0.80
2022-09-18T21:08:54.820Z,1.00
2022-09-18T21:11:18.420Z,1.70
2022-09-18T21:13:43.417Z,1.47
2022-09-18T21:16:05.952Z,1.20
2022-09-18T21:18:27.458Z,2.33
2022-09-18T21:20:48.867Z,2.47
2022-09-18T21:23:30.223Z,2.50
2022-09-18T21:25:51.668Z,2.83
2022-09-18T21:28:13.363Z,1.13
2022-09-18T21:30:34.788Z,0.90
2022-09-18T21:32:56.224Z,1.63
2022-09-18T21:35:18.785Z,0.53
2022-09-18T21:37:40.244Z,3.47
2022-09-18T21:40:02.846Z,1.87
2022-09-18T21:42:25.936Z,1.77
2022-09-18T21:44:47.401Z,0.50
2022-09-18T21:47:10.778Z,1.77
2022-09-18T21:49:32.888Z,0.93
2022-09-18T21:51:56.693Z,6.17
2022-09-18T21:54:22.337Z,1.00
2022-09-18T21:56:49.391Z,3.03
2022-09-18T21:59:11.372Z,2.20
2022-09-18T22:01:33.451Z,3.37
2022-09-18T22:03:57.635Z,2.00
2022-09-18T22:06:26.039Z,1.23
2022-09-18T22:08:50.202Z,1.53
2022-09-18T22:11:11.638Z,3.50
2022-09-18T22:13:33.042Z,1.40
2022-09-18T22:15:56.448Z,4.27
2022-09-18T22:18:17.882Z,1.60
2022-09-18T22:20:39.330Z,2.10
2022-09-18T22:23:00.739Z,2.60
2022-09-18T22:25:22.173Z,2.83
2022-09-18T22:27:44.183Z,1.50
2022-09-18T22:30:06.176Z,2.80
2022-09-18T22:32:28.724Z,2.83
2022-09-18T22:34:52.592Z,4.43
2022-09-18T22:37:14.083Z,2.33
2022-09-18T22:39:35.523Z,5.77
2022-09-18T22:41:57.250Z,2.40
2022-09-18T22:44:22.770Z,2.47
2022-09-18T22:46:46.379Z,3.70
2022-09-18T22:49:08.867Z,2.63
2022-09-18T22:51:30.296Z,3.40
2022-09-18T22:53:54.314Z,4.63
2022-09-18T22:56:17.023Z,3.50
2022-09-18T22:58:41.370Z,3.90
2022-09-18T23:01:19.305Z,5.40
2022-09-18T23:03:41.243Z,1.93
2022-09-18T23:06:03.387Z,2.80
2022-09-18T23:08:25.022Z,3.67
2022-09-18T23:10:46.475Z,4.23
2022-09-18T23:13:09.353Z,2.83
2022-09-18T23:15:30.765Z,1.97
2022-09-18T23:17:52.555Z,5.73
2022-09-18T23:20:15.300Z,1.73
2022-09-18T23:22:37.068Z,3.10
2022-09-18T23:24:58.505Z,4.43
2022-09-18T23:27:19.907Z,3.43
2022-09-18T23:29:41.374Z,5.77
2022-09-18T23:32:04.308Z,2.23
2022-09-18T23:34:30.899Z,1.80
2022-09-18T23:36:54.593Z,2.00
2022-09-18T23:39:22.202Z,3.70
2022-09-18T23:41:44.027Z,2.47
2022-09-18T23:44:08.191Z,5.30
2022-09-18T23:46:29.811Z,3.73
2022-09-18T23:48:55.082Z,2.93
2022-09-18T23:51:16.610Z,2.60
2022-09-18T23:53:39.509Z,1.83
2022-09-18T23:56:12.050Z,3.53
2022-09-18T23:58:34.059Z,1.63
